Date,TemperatureHighF,TemperatureAvgF,TemperatureLowF,DewpointHighF,DewpointAvgF,DewpointLowF,HumidityHigh,HumidityAvg,HumidityLow,PressureMaxIn,PressureMinIn,WindSpeedMaxMPH,WindSpeedAvgMPH,GustSpeedMaxMPH,PrecipitationSumIn
2013-1-1,79,73,62,63,61,58,87,66,56,30.18,30.03,13,3,13,0.00
2013-1-2,82,70,57,68,64,56,99,83,56,30.06,29.96,6,1,8,0.00
2013-1-3,82,73,64,70,67,63,97,82,64,30.11,30.00,6,2,8,0.08
2013-1-4,82,72,64,72,68,63,99,88,71,30.21,30.08,6,2,9,0.15
2013-1-5,77,69,65,71,67,64,99,94,79,30.23,30.14,5,1,7,0.36
2013-1-6,83,72,62,73,69,62,99,89,72,30.17,30.03,6,2,10,0.01
2013-1-7,79,71,66,71,68,66,99,92,75,30.14,30.04,5,1,8,0.19
2013-1-8,83,76,70,75,72,69,97,87,74,30.19,30.05,6,4,14,1.26
2013-1-9,83,79,74,73,72,70,93,80,72,30.26,30.14,10,6,13,0.02
2013-1-10,82,77,74,71,68,64,85,74,57,30.27,30.17,9,5,14,0.01
2013-1-11,82,76,73,72,69,67,86,79,68,30.24,30.14,8,4,13,0.01
2013-1-12,83,76,71,70,67,65,84,74,63,30.16,30.07,7,4,12,0.01
2013-1-13,83,76,73,70,66,62,83,73,62,30.11,30.05,8,5,13,0.01
2013-1-14,82,76,70,68,66,62,83,72,59,30.15,30.09,6,3,10,0.00
2013-1-15,83,76,72,69,67,63,85,74,61,30.12,30.02,7,4,12,0.00
2013-1-16,83,74,62,71,67,60,97,80,62,30.08,29.99,6,2,10,0.00
2013-1-17,82,71,61,72,67,54,99,87,70,30.06,29.94,8,3,12,0.57
2013-1-18,74,65,53,62,54,47,80,70,60,30.20,30.06,8,4,13,0.01
2013-1-19,73,69,65,70,65,60,99,86,70,30.19,30.08,5,1,8,0.73
2013-1-20,80,71,62,71,67,62,99,87,70,30.12,29.99,7,2,10,0.24
2013-1-21,80,70,64,71,68,63,99,90,73,30.07,29.96,5,1,7,0.25
2013-1-22,77,68,62,64,60,53,98,75,57,30.22,29.99,9,4,14,0.01
2013-1-23,78,68,58,59,55,51,88,64,47,30.29,30.20,8,4,13,0.01
2013-1-24,77,64,56,56,53,44,92,69,42,30.28,30.20,7,2,10,0.00
2013-1-25,79,65,54,62,56,50,92,73,47,30.29,30.18,6,2,9,0.00
2013-1-26,80,68,57,61,57,52,95,72,46,30.26,30.16,6,2,9,0.00
2013-1-27,82,70,58,63,60,56,97,73,49,30.29,30.20,8,2,10,0.00
2013-1-28,83,75,71,68,65,61,83,71,58,30.32,30.23,8,5,12,0.00
2013-1-29,81,74,71,71,69,66,94,82,71,30.24,30.13,7,4,13,0.24
2013-1-30,80,75,71,70,67,63,91,77,66,30.14,29.96,9,4,14,0.01
2013-1-31,72,65,56,69,54,40,94,70,51,30.18,29.98,6,3,12,0.00
2013-2-1,76,62,51,57,49,39,80,63,50,30.27,30.16,8,4,15,0.00
2013-2-2,78,63,53,54,48,37,90,61,42,30.26,30.12,6,2,12,0.00
2013-2-3,78,61,49,53,48,40,99,66,29,30.17,30.07,7,2,13,0.00
2013-2-4,77,61,46,54,48,40,91,65,31,30.14,30.03,5,1,9,0.00
2013-2-5,80,66,50,64,57,49,99,76,49,30.09,30.00,7,2,9,0.00
2013-2-6,82,70,58,68,63,57,99,79,61,30.11,30.02,6,2,10,0.00
2013-2-7,83,75,70,69,66,62,81,73,61,30.08,29.94,7,4,9,0.00
2013-2-8,85,74,65,71,66,60,97,79,48,30.03,29.91,7,2,10,0.00
2013-2-9,83,71,63,68,64,60,99,80,53,30.18,30.01,8,3,13,0.00
2013-2-10,79,72,70,64,62,60,75,69,59,30.27,30.17,7,5,14,0.00
2013-2-11,80,74,69,66,64,61,79,71,61,30.22,30.11,9,4,12,0.00
2013-2-12,83,74,64,71,68,62,98,80,63,30.13,29.97,9,3,13,0.00
2013-2-13,83,75,67,74,71,67,99,86,72,30.02,29.88,9,3,13,0.00
2013-2-14,82,71,63,73,68,62,99,91,73,30.01,29.87,7,2,10,2.60
2013-2-15,74,67,63,68,66,63,99,96,81,30.02,29.93,5,2,10,1.69
2013-2-16,74,65,54,65,57,43,99,78,47,30.08,29.87,9,4,14,0.01
2013-2-17,62,52,43,43,29,16,71,45,21,30.31,30.08,9,5,15,0.00
2013-2-18,72,59,45,56,44,31,70,59,43,30.32,30.22,7,4,12,0.00
2013-2-19,80,72,61,67,61,52,84,68,57,30.22,30.09,8,4,13,0.00
2013-2-20,81,71,61,69,65,60,99,84,60,30.12,30.02,6,2,9,0.02
2013-2-21,84,74,64,70,67,62,97,80,60,30.10,29.99,7,2,9,0.00
2013-2-22,84,77,72,73,71,67,90,82,69,30.10,30.01,7,5,12,0.00
2013-2-23,84,76,71,74,71,68,97,84,70,30.06,29.92,8,5,13,0.98
2013-2-24,88,77,70,75,72,69,99,87,56,30.00,29.90,6,2,8,0.98
2013-2-25,84,76,66,75,71,65,99,87,72,29.91,29.81,7,3,10,0.01
2013-2-26,84,78,75,75,72,71,94,82,69,29.89,29.80,10,5,17,0.00
2013-2-27,80,71,62,74,66,61,99,85,55,29.96,29.86,5,2,8,0.79
2013-2-28,73,64,57,64,54,46,99,73,39,30.00,29.90,5,2,7,0.41
2013-3-1,69,62,58,56,51,46,81,67,47,29.98,29.90,4,2,7,0.00
2013-3-2,70,58,49,49,42,34,79,55,37,30.03,29.95,7,4,14,0.00
2013-3-3,65,54,47,43,41,38,84,62,40,30.14,29.96,7,3,13,0.00
2013-3-4,68,54,39,45,37,30,88,58,24,30.21,30.11,7,3,13,0.00
2013-3-5,76,62,44,58,52,42,95,72,50,30.18,30.09,6,2,10,0.00
2013-3-6,80,65,53,65,52,33,96,66,24,30.09,29.94,9,4,15,0.00
2013-3-7,72,55,46,56,42,35,80,63,46,30.16,30.07,6,3,10,0.00
2013-3-8,76,63,50,54,51,46,97,67,36,30.20,30.11,9,2,10,0.00
2013-3-9,78,65,51,58,53,47,95,68,45,30.19,30.10,7,3,12,0.00
2013-3-10,80,72,66,61,56,52,75,59,46,30.16,30.08,7,4,12,0.00
2013-3-11,81,72,68,64,61,58,76,67,50,30.12,29.96,7,5,12,0.00
2013-3-12,81,74,71,72,66,62,87,76,67,30.00,29.91,9,5,14,0.00
2013-3-13,78,66,56,67,56,44,96,72,37,30.12,29.97,9,3,13,0.00
2013-3-14,73,61,53,52,48,42,94,65,34,30.20,30.09,12,4,18,0.00
2013-3-15,75,62,50,56,51,44,84,67,47,30.25,30.15,7,3,12,0.00
2013-3-16,78,65,51,57,53,50,99,69,42,30.19,30.09,8,2,10,0.00
2013-3-17,79,69,56,62,58,53,93,71,54,30.15,30.03,9,2,12,0.00
2013-3-18,83,73,67,71,66,61,97,80,63,30.08,29.96,9,4,16,0.72
2013-3-19,81,72,67,71,68,66,97,88,65,30.01,29.83,6,2,12,0.69
2013-3-20,83,72,61,72,66,59,99,83,59,29.97,29.80,7,2,13,0.01
2013-3-21,75,62,53,68,56,48,94,82,41,29.95,29.82,7,3,9,0.00
2013-3-22,79,66,49,70,58,47,98,78,55,30.01,29.90,7,2,12,0.02
2013-3-23,86,77,70,76,73,69,97,86,70,29.98,29.80,10,3,13,0.04
2013-3-24,93,81,72,75,72,68,96,78,51,29.89,29.67,13,5,20,0.21
2013-3-25,83,74,64,73,60,35,97,66,30,29.98,29.74,7,3,12,0.21
2013-3-26,73,61,52,42,36,30,57,41,22,30.21,29.98,7,4,13,0.00
2013-3-27,71,57,44,48,40,30,80,55,37,30.25,30.16,8,3,15,0.00
2013-3-28,75,61,48,52,45,34,85,58,30,30.27,30.18,7,3,12,0.00
2013-3-29,79,65,50,54,49,43,81,60,38,30.29,30.21,7,2,12,0.00
2013-3-30,79,70,61,55,52,50,70,55,37,30.27,30.17,5,3,12,0.00
2013-3-31,82,74,65,67,61,-100,82,68,56,30.20,30.05,7,4,13,0.00
2013-4-1,90,77,69,72,68,61,91,75,40,30.06,29.94,9,3,17,0.09
2013-4-2,85,74,65,69,66,64,98,78,54,30.08,29.98,7,2,9,0.09
2013-4-3,86,78,72,72,69,67,86,76,61,30.06,30.00,8,4,12,0.00
2013-4-4,85,76,68,74,71,67,97,85,68,30.05,29.91,9,4,13,0.94
2013-4-5,73,69,65,72,67,64,97,93,85,29.98,29.82,9,3,12,0.77
2013-4-6,82,69,58,68,62,57,98,80,56,30.08,29.91,8,4,14,0.01
2013-4-7,82,75,70,66,63,61,77,68,55,30.14,30.02,6,4,13,0.01
2013-4-8,85,74,59,66,62,56,95,68,49,30.14,30.04,6,2,8,0.00
2013-4-9,85,77,73,70,68,65,84,74,58,30.16,30.05,7,4,13,0.00
2013-4-10,86,79,73,75,71,66,86,78,66,30.11,30.00,7,5,14,0.00
2013-4-11,86,79,75,75,73,71,89,82,69,30.02,29.90,9,6,13,0.00
2013-4-12,88,80,76,78,75,73,92,86,71,29.94,29.86,9,5,13,0.03
2013-4-13,87,77,70,76,73,69,96,88,66,29.96,29.87,7,2,10,0.97
2013-4-14,86,76,70,76,73,69,99,91,72,29.96,29.91,5,2,7,0.97
2013-4-15,89,78,70,79,73,68,98,87,61,30.06,29.93,7,2,16,1.40
2013-4-16,87,78,69,79,74,69,99,86,69,30.12,30.02,9,3,13,1.46
2013-4-17,87,79,73,72,70,67,87,73,56,30.11,30.03,7,4,12,0.01
2013-4-18,89,81,75,76,72,68,85,75,62,30.06,29.98,7,4,13,0.00
2013-4-19,88,82,77,76,74,71,90,77,62,30.05,29.96,10,5,14,0.01
2013-4-20,89,79,72,78,74,70,98,86,68,30.08,29.96,8,3,13,0.27
2013-4-21,87,78,71,76,72,69,98,83,64,30.10,29.98,8,3,13,0.01
2013-4-22,86,75,70,74,70,68,97,85,62,30.04,29.93,6,2,12,0.56
2013-4-23,86,76,67,70,67,62,98,74,54,30.09,29.95,10,5,14,0.07
2013-4-24,87,79,72,67,64,60,76,62,49,30.14,30.03,8,3,10,0.00
2013-4-25,86,78,71,65,63,61,75,61,48,30.20,30.08,7,3,9,0.00
2013-4-26,86,77,69,68,65,61,79,66,53,30.23,30.12,9,3,14,0.00
2013-4-27,87,78,72,67,65,61,75,63,48,30.21,30.09,7,4,10,0.00
2013-4-28,87,79,73,66,63,-100,74,61,45,30.12,30.00,7,5,13,0.00
2013-4-29,87,79,74,72,68,63,83,70,54,30.04,29.94,10,5,13,0.00
2013-4-30,89,77,71,74,71,68,98,81,59,30.00,29.92,7,2,15,0.73
2013-5-1,86,75,70,77,71,69,98,87,68,30.00,29.93,6,1,9,0.43
2013-5-2,80,73,68,74,71,67,99,94,81,29.94,29.80,10,3,16,2.70
2013-5-3,87,75,69,73,70,68,99,86,57,29.81,29.67,6,3,9,3.22
2013-5-4,92,77,67,72,69,66,99,78,50,29.79,29.68,6,2,10,0.12
2013-5-5,88,75,63,70,62,51,96,68,34,29.92,29.75,7,3,10,0.01
2013-5-6,78,61,55,63,55,51,97,82,61,30.01,29.91,3,1,6,0.00
2013-5-7,87,78,62,67,62,56,81,57,41,30.06,29.97,7,4,12,0.00
2013-5-8,88,75,61,66,62,58,96,68,40,30.14,30.03,7,2,9,0.00
2013-5-9,90,78,63,75,68,60,92,72,56,30.14,30.06,7,2,10,0.00
2013-5-10,90,81,74,76,71,-100,88,76,56,30.14,30.02,7,3,12,0.00
2013-5-11,90,80,72,77,74,71,99,83,65,30.07,29.98,8,3,13,0.01
2013-5-12,90,77,70,77,71,-100,99,84,60,30.06,29.93,7,2,13,1.24
2013-5-13,90,78,71,74,70,66,99,78,47,30.09,29.99,8,2,13,1.24
2013-5-14,86,78,73,67,61,56,78,57,42,30.18,30.06,9,5,13,0.00
2013-5-15,86,78,71,66,62,56,70,58,43,30.19,30.09,6,4,10,0.00
2013-5-16,87,72,70,66,41,-100,72,59,46,30.12,30.04,7,3,10,0.00
2013-5-17,89,79,72,75,63,-100,87,73,60,30.09,30.01,7,3,10,0.00
2013-5-18,89,80,72,75,73,70,98,80,62,30.11,30.03,9,3,13,0.05
2013-5-19,89,82,75,73,70,69,85,70,54,30.10,30.00,7,3,10,0.00
2013-5-20,82,76,69,76,73,68,98,90,78,30.08,29.98,7,2,10,2.97
2013-5-21,86,76,69,76,72,68,99,89,64,30.07,29.94,9,3,13,1.32
2013-5-22,87,78,73,76,73,71,96,85,65,29.98,29.89,6,2,12,0.48
2013-5-23,99,83,77,77,74,66,94,76,35,30.00,29.93,7,2,9,0.01
2013-5-24,93,84,75,78,75,71,99,76,49,30.05,29.94,9,2,12,0.00
2013-5-25,89,81,71,74,69,64,96,68,47,30.16,30.04,9,4,14,0.08
2013-5-26,89,81,74,69,65,57,77,61,49,30.18,30.10,7,4,13,0.00
2013-5-27,89,80,74,74,70,63,87,71,61,30.16,30.07,7,4,13,0.00
2013-5-28,85,79,75,75,73,71,94,83,69,30.12,30.04,9,6,14,0.30